createdAt,value
2023-01-15T00:01:24.837Z,8.41
2023-01-15T00:03:53.832Z,8.47
2023-01-15T00:06:23.211Z,8.38
2023-01-15T00:08:51.514Z,8.26
2023-01-15T00:11:21.275Z,8.21
2023-01-15T00:13:49.527Z,8.24
2023-01-15T00:16:19.789Z,8.33
2023-01-15T00:18:51.491Z,8.04
2023-01-15T00:21:19.993Z,8.19
2023-01-15T00:24:06.078Z,8.24
2023-01-15T00:26:53.298Z,8.13
2023-01-15T00:29:22.221Z,7.97
2023-01-15T00:31:57.336Z,8.03
2023-01-15T00:34:26.130Z,7.89
2023-01-15T00:36:54.341Z,8.07
2023-01-15T00:39:24.038Z,8.30
2023-01-15T00:41:54.033Z,8.09
2023-01-15T00:44:22.640Z,8.23
2023-01-15T00:46:53.060Z,8.20
2023-01-15T00:49:22.463Z,7.96
2023-01-15T00:51:51.098Z,8.22
2023-01-15T00:54:19.183Z,8.12
2023-01-15T00:56:47.623Z,8.19
2023-01-15T00:59:16.987Z,8.25
2023-01-15T01:01:45.005Z,8.04
2023-01-15T01:04:13.095Z,8.38
2023-01-15T01:06:41.234Z,8.27
2023-01-15T01:09:10.795Z,8.30
2023-01-15T01:11:38.717Z,8.28
2023-01-15T01:14:06.672Z,8.22
2023-01-15T01:16:38.607Z,8.40
2023-01-15T01:19:09.845Z,8.46
2023-01-15T01:21:39.748Z,8.41
2023-01-15T01:24:08.658Z,8.29
2023-01-15T01:26:36.661Z,8.19
2023-01-15T01:29:05.615Z,8.13
2023-01-15T01:31:35.807Z,8.18
2023-01-15T01:34:04.304Z,8.18
2023-01-15T01:36:35.547Z,8.06
2023-01-15T01:39:05.254Z,8.06
2023-01-15T01:41:34.087Z,8.14
2023-01-15T01:44:04.883Z,8.24
2023-01-15T01:46:35.922Z,8.16
2023-01-15T01:49:07.812Z,8.08
2023-01-15T01:51:40.750Z,8.01
2023-01-15T01:54:12.154Z,8.25
2023-01-15T01:56:40.673Z,8.01
2023-01-15T01:59:09.846Z,8.17
2023-01-15T02:01:39.507Z,8.15
2023-01-15T02:04:08.893Z,8.26
2023-01-15T02:06:38.357Z,8.15
2023-01-15T02:09:07.043Z,7.96
2023-01-15T02:11:35.964Z,8.01
2023-01-15T02:14:10.699Z,8.14
2023-01-15T02:16:48.078Z,8.14
2023-01-15T02:19:23.915Z,8.07
2023-01-15T02:21:56.858Z,8.02
2023-01-15T02:24:34.799Z,8.00
2023-01-15T02:27:18.098Z,7.71
2023-01-15T02:29:53.003Z,7.71
2023-01-15T02:32:31.510Z,7.60
2023-01-15T02:35:07.389Z,7.73
2023-01-15T02:37:42.679Z,7.80
2023-01-15T02:40:13.572Z,7.94
2023-01-15T02:42:46.299Z,7.95
2023-01-15T02:45:15.876Z,7.78
2023-01-15T02:47:45.671Z,7.77
2023-01-15T02:50:16.595Z,7.82
2023-01-15T02:52:49.137Z,7.90
2023-01-15T02:55:27.260Z,7.79
2023-01-15T02:58:03.984Z,7.87
2023-01-15T03:00:38.556Z,8.15
2023-01-15T03:03:11.104Z,8.13
2023-01-15T03:05:44.209Z,8.10
2023-01-15T03:08:13.084Z,8.09
2023-01-15T03:10:47.998Z,7.92
2023-01-15T03:13:26.057Z,7.90
2023-01-15T03:16:19.229Z,7.92
2023-01-15T03:18:54.355Z,7.82
2023-01-15T03:21:31.726Z,8.01
2023-01-15T03:24:02.993Z,7.96
2023-01-15T03:26:31.999Z,7.93
2023-01-15T03:29:05.797Z,7.94
2023-01-15T03:31:34.907Z,7.72
2023-01-15T03:34:03.421Z,7.60
2023-01-15T03:36:31.528Z,7.73
2023-01-15T03:39:03.224Z,7.52
2023-01-15T03:41:58.187Z,7.41
2023-01-15T03:44:37.244Z,7.61
2023-01-15T03:47:20.874Z,7.78
2023-01-15T03:49:56.793Z,7.69
2023-01-15T03:52:34.571Z,7.32
2023-01-15T03:55:12.952Z,7.50
2023-01-15T03:57:49.799Z,7.64
2023-01-15T04:00:23.830Z,7.82
2023-01-15T04:02:57.536Z,7.70
2023-01-15T04:05:29.851Z,7.65
2023-01-15T04:08:00.055Z,7.56
2023-01-15T04:10:30.405Z,7.71
2023-01-15T04:12:59.419Z,7.63
2023-01-15T04:15:28.816Z,7.71
2023-01-15T04:17:56.950Z,7.68
2023-01-15T04:20:26.744Z,7.68
2023-01-15T04:22:55.133Z,7.65
2023-01-15T04:25:23.252Z,7.61
2023-01-15T04:27:54.990Z,7.53
2023-01-15T04:30:23.339Z,7.53
2023-01-15T04:32:52.937Z,7.37
2023-01-15T04:35:21.998Z,7.31
2023-01-15T04:37:50.286Z,7.48
2023-01-15T04:40:32.248Z,7.52
2023-01-15T04:43:17.629Z,7.58
2023-01-15T04:45:46.375Z,7.55
2023-01-15T04:48:15.730Z,7.52
2023-01-15T04:50:43.864Z,7.26
2023-01-15T04:53:12.096Z,7.49
2023-01-15T04:55:40.231Z,7.32
2023-01-15T04:58:08.265Z,7.48
2023-01-15T05:00:36.341Z,7.52
2023-01-15T05:03:04.794Z,7.38
2023-01-15T05:05:34.066Z,7.43
2023-01-15T05:08:02.194Z,7.34
2023-01-15T05:10:30.479Z,7.36
2023-01-15T05:12:58.359Z,7.49
2023-01-15T05:15:26.271Z,7.53
2023-01-15T05:17:54.251Z,7.29
2023-01-15T05:20:22.244Z,7.49
2023-01-15T05:22:51.592Z,7.57
2023-01-15T05:25:19.507Z,7.55
2023-01-15T05:27:47.540Z,7.39
2023-01-15T05:30:15.586Z,7.22
2023-01-15T05:32:43.508Z,7.20
2023-01-15T05:35:11.574Z,7.35
2023-01-15T05:37:39.580Z,7.32
2023-01-15T05:40:10.879Z,7.19
2023-01-15T05:42:39.250Z,7.15
2023-01-15T05:45:09.063Z,7.20
2023-01-15T05:47:37.267Z,7.09
2023-01-15T05:50:06.927Z,7.13
2023-01-15T05:52:35.004Z,7.15
2023-01-15T05:55:03.678Z,7.31
2023-01-15T05:57:33.739Z,7.47
2023-01-15T06:00:01.663Z,7.50
2023-01-15T06:02:30.144Z,7.51
2023-01-15T06:04:58.239Z,7.25
2023-01-15T06:07:26.207Z,7.27
2023-01-15T06:09:54.247Z,7.38
2023-01-15T06:12:22.211Z,7.43
2023-01-15T06:14:51.475Z,7.20
2023-01-15T06:17:19.489Z,7.15
2023-01-15T06:19:47.387Z,7.27
2023-01-15T06:22:16.522Z,7.25
2023-01-15T06:24:44.666Z,7.17
2023-01-15T06:27:13.117Z,6.85
2023-01-15T06:29:41.582Z,7.03
2023-01-15T06:32:11.147Z,7.03
2023-01-15T06:34:41.460Z,6.87
2023-01-15T06:37:09.604Z,6.80
2023-01-15T06:39:38.252Z,6.94
2023-01-15T06:42:24.247Z,6.92
2023-01-15T06:45:10.009Z,7.22
2023-01-15T06:47:39.518Z,7.12
2023-01-15T06:50:08.986Z,7.18
2023-01-15T06:52:37.131Z,7.23
2023-01-15T06:55:07.286Z,7.24
2023-01-15T06:57:35.600Z,7.12
2023-01-15T07:00:04.934Z,7.12
2023-01-15T07:02:33.261Z,7.23
2023-01-15T07:05:02.802Z,7.00
2023-01-15T07:07:31.478Z,6.88
2023-01-15T07:09:59.651Z,6.69
2023-01-15T07:12:27.945Z,6.74
2023-01-15T07:14:55.958Z,7.06
2023-01-15T07:17:23.997Z,7.08
2023-01-15T07:19:52.495Z,7.17
2023-01-15T07:22:22.029Z,7.11
2023-01-15T07:24:50.042Z,7.23
2023-01-15T07:27:17.971Z,7.08
2023-01-15T07:29:46.130Z,6.94
2023-01-15T07:32:14.611Z,6.79
2023-01-15T07:34:42.616Z,6.81
2023-01-15T07:37:10.635Z,6.89
2023-01-15T07:39:40.040Z,6.71
2023-01-15T07:42:25.651Z,6.65
2023-01-15T07:45:11.344Z,6.69
2023-01-15T07:47:57.829Z,6.79
2023-01-15T07:50:26.390Z,6.60
2023-01-15T07:52:54.542Z,6.77
2023-01-15T07:55:25.001Z,6.69
2023-01-15T07:57:53.887Z,6.73
2023-01-15T08:00:24.612Z,6.64
2023-01-15T08:02:53.333Z,6.64
2023-01-15T08:05:21.695Z,6.56
2023-01-15T08:07:50.644Z,6.36
2023-01-15T08:10:20.205Z,6.47
2023-01-15T08:13:09.262Z,6.65
2023-01-15T08:15:42.810Z,6.58
2023-01-15T08:18:10.693Z,6.56
2023-01-15T08:20:38.644Z,6.52
2023-01-15T08:23:06.821Z,6.80
2023-01-15T08:25:35.870Z,6.54
2023-01-15T08:28:05.912Z,6.49
2023-01-15T08:30:34.478Z,6.48
2023-01-15T08:33:03.715Z,6.55
2023-01-15T08:35:32.331Z,6.47
2023-01-15T08:38:00.432Z,6.59
2023-01-15T08:40:28.565Z,6.69
2023-01-15T08:42:56.794Z,6.64
2023-01-15T08:45:26.221Z,6.61
2023-01-15T08:47:57.856Z,6.61
2023-01-15T08:50:26.248Z,6.51
2023-01-15T08:52:54.168Z,6.44
2023-01-15T08:55:22.166Z,6.49
2023-01-15T08:57:51.892Z,6.54
2023-01-15T09:00:21.718Z,6.22
2023-01-15T09:02:51.334Z,6.09
2023-01-15T09:05:19.491Z,5.99
2023-01-15T09:07:47.568Z,6.05
2023-01-15T09:10:15.540Z,5.85
2023-01-15T09:12:43.506Z,5.84
2023-01-15T09:15:12.419Z,5.77
2023-01-15T09:17:41.004Z,5.83
2023-01-15T09:20:13.056Z,5.99
2023-01-15T09:22:41.387Z,6.01
2023-01-15T09:25:10.121Z,5.82
2023-01-15T09:27:38.206Z,5.89
2023-01-15T09:30:07.471Z,5.82
2023-01-15T09:32:35.781Z,6.09
2023-01-15T09:35:04.103Z,6.29
2023-01-15T09:37:33.753Z,6.36
2023-01-15T09:40:03.179Z,6.19
2023-01-15T09:42:44.826Z,6.28
2023-01-15T09:45:20.628Z,6.28
2023-01-15T09:48:06.819Z,6.42
2023-01-15T09:50:48.768Z,6.40
2023-01-15T09:53:36.505Z,6.39
2023-01-15T09:56:05.681Z,6.56
2023-01-15T09:58:36.312Z,6.56
2023-01-15T10:01:05.771Z,6.74
2023-01-15T10:03:41.855Z,6.67
2023-01-15T10:06:16.605Z,6.93
2023-01-15T10:08:48.139Z,7.02
2023-01-15T10:11:50.385Z,7.08
2023-01-15T10:14:39.164Z,7.01
2023-01-15T10:17:18.915Z,7.01
2023-01-15T10:19:47.218Z,6.92
2023-01-15T10:22:22.993Z,6.98
2023-01-15T10:24:57.433Z,6.92
2023-01-15T10:27:28.679Z,7.14
2023-01-15T10:30:03.270Z,6.96
2023-01-15T10:32:56.908Z,6.93
2023-01-15T10:35:38.159Z,7.24
2023-01-15T10:38:15.370Z,7.32
2023-01-15T10:41:03.661Z,7.48
2023-01-15T10:43:44.568Z,7.64
2023-01-15T10:46:14.871Z,7.66
2023-01-15T10:48:45.876Z,7.54
2023-01-15T10:51:18.502Z,7.50
2023-01-15T10:53:51.811Z,7.48
2023-01-15T10:56:32.844Z,7.42
2023-01-15T10:59:12.888Z,7.39
2023-01-15T11:01:41.898Z,7.39
2023-01-15T11:04:12.628Z,7.48
2023-01-15T11:06:41.428Z,7.40
2023-01-15T11:09:20.601Z,7.47
2023-01-15T11:12:09.039Z,7.54
2023-01-15T11:14:56.156Z,7.52
2023-01-15T11:17:43.289Z,7.52
2023-01-15T11:20:22.474Z,7.51
2023-01-15T11:22:50.993Z,7.58
2023-01-15T11:25:29.815Z,7.76
2023-01-15T11:28:02.400Z,7.66
2023-01-15T11:30:33.221Z,7.63
2023-01-15T11:33:04.188Z,7.65
2023-01-15T11:35:33.756Z,7.67
2023-01-15T11:38:06.787Z,7.68
2023-01-15T11:40:35.999Z,7.69
2023-01-15T11:43:37.027Z,7.51
2023-01-15T11:46:22.541Z,7.52
2023-01-15T11:49:08.448Z,7.57
2023-01-15T11:51:42.104Z,7.58
2023-01-15T11:54:12.273Z,7.36
2023-01-15T11:56:43.415Z,7.37
2023-01-15T11:59:14.687Z,7.35
2023-01-15T12:01:54.770Z,7.22
2023-01-15T12:04:31.869Z,7.15
2023-01-15T12:07:00.854Z,7.26
2023-01-15T12:09:40.240Z,7.34
2023-01-15T12:12:18.753Z,7.38
2023-01-15T12:15:04.199Z,7.15
2023-01-15T12:17:51.779Z,7.17
2023-01-15T12:20:26.155Z,7.17
2023-01-15T12:23:22.107Z,7.35
2023-01-15T12:26:01.083Z,7.20
2023-01-15T12:28:34.212Z,6.62
2023-01-15T12:31:11.708Z,6.18
2023-01-15T12:33:47.535Z,5.55
2023-01-15T12:36:20.942Z,5.59
2023-01-15T12:38:52.286Z,5.59
2023-01-15T12:41:47.363Z,5.50
2023-01-15T12:44:38.595Z,5.49
2023-01-15T12:47:16.610Z,5.60
2023-01-15T12:49:49.385Z,5.59
2023-01-15T12:52:24.306Z,5.70
2023-01-15T12:54:57.659Z,5.77
2023-01-15T12:57:30.658Z,5.86
2023-01-15T13:00:04.459Z,5.67
2023-01-15T13:02:40.546Z,5.74
2023-01-15T13:05:18.851Z,5.90
2023-01-15T13:07:54.661Z,5.90
2023-01-15T13:10:26.996Z,5.91
2023-01-15T13:12:57.039Z,6.03
2023-01-15T13:15:32.298Z,6.02
2023-01-15T13:18:12.631Z,5.99
2023-01-15T13:20:47.941Z,6.09
2023-01-15T13:23:34.105Z,6.02
2023-01-15T13:26:17.713Z,6.08
2023-01-15T13:29:01.068Z,6.18
2023-01-15T13:31:56.575Z,6.24
2023-01-15T13:34:35.069Z,6.17
2023-01-15T13:37:11.056Z,6.13
2023-01-15T13:39:42.959Z,5.99
2023-01-15T13:42:34.509Z,6.17
2023-01-15T13:45:26.866Z,6.23
2023-01-15T13:47:59.401Z,6.29
2023-01-15T13:50:32.725Z,6.14
2023-01-15T13:53:06.973Z,5.90
2023-01-15T13:55:37.393Z,5.71
2023-01-15T13:58:20.783Z,5.52
2023-01-15T14:00:49.114Z,5.71
2023-01-15T14:03:28.520Z,5.94
2023-01-15T14:06:00.377Z,6.03
2023-01-15T14:08:37.859Z,6.00
2023-01-15T14:11:06.324Z,6.27
2023-01-15T14:14:02.773Z,6.07
2023-01-15T14:16:42.055Z,6.27
2023-01-15T14:19:37.720Z,6.18
2023-01-15T14:22:27.796Z,6.40
2023-01-15T14:25:13.560Z,6.51
2023-01-15T14:27:59.695Z,6.64
2023-01-15T14:30:50.245Z,6.63
2023-01-15T14:33:30.133Z,6.62
2023-01-15T14:35:58.463Z,6.69
2023-01-15T14:38:29.311Z,6.58
2023-01-15T14:41:00.761Z,6.69
2023-01-15T14:43:31.645Z,6.82
2023-01-15T14:46:14.239Z,6.96
2023-01-15T14:48:42.351Z,6.94
2023-01-15T14:51:13.517Z,7.01
2023-01-15T14:53:45.908Z,6.89
2023-01-15T14:56:19.834Z,6.67
2023-01-15T14:58:56.194Z,6.85
2023-01-15T15:01:45.269Z,6.95
2023-01-15T15:04:22.048Z,6.98
2023-01-15T15:06:55.354Z,6.89
2023-01-15T15:09:34.541Z,7.15
2023-01-15T15:12:21.887Z,7.11
2023-01-15T15:14:58.929Z,6.87
2023-01-15T15:17:40.788Z,6.81
2023-01-15T15:20:21.149Z,6.87
2023-01-15T15:22:53.816Z,6.78
2023-01-15T15:25:28.012Z,6.91
2023-01-15T15:28:04.254Z,7.00
2023-01-15T15:30:36.330Z,6.88
2023-01-15T15:33:06.793Z,6.94
2023-01-15T15:35:35.805Z,7.10
2023-01-15T15:38:06.805Z,7.13
2023-01-15T15:40:38.313Z,6.93
2023-01-15T15:43:33.591Z,6.87
2023-01-15T15:46:34.498Z,6.89
2023-01-15T15:49:05.666Z,6.78
2023-01-15T15:51:35.966Z,6.92
2023-01-15T15:54:13.588Z,7.00
2023-01-15T15:56:47.974Z,6.97
2023-01-15T15:59:28.370Z,6.87
2023-01-15T16:01:56.881Z,6.95
2023-01-15T16:04:25.532Z,7.02
2023-01-15T16:06:53.855Z,6.83
2023-01-15T16:09:23.315Z,6.88
2023-01-15T16:11:55.710Z,7.09
2023-01-15T16:14:24.450Z,7.18
2023-01-15T16:16:53.509Z,6.96
2023-01-15T16:19:25.530Z,7.05
2023-01-15T16:21:54.899Z,7.02
2023-01-15T16:24:25.431Z,7.03
2023-01-15T16:27:17.340Z,7.06
2023-01-15T16:29:50.840Z,6.96
2023-01-15T16:32:25.103Z,6.99
2023-01-15T16:35:01.884Z,7.09
2023-01-15T16:37:31.914Z,7.21
2023-01-15T16:40:02.137Z,7.23
2023-01-15T16:42:37.053Z,7.11
2023-01-15T16:45:13.172Z,7.02
2023-01-15T16:47:41.461Z,7.03
2023-01-15T16:50:31.482Z,6.87
2023-01-15T16:53:02.370Z,7.03
2023-01-15T16:55:40.367Z,7.02
2023-01-15T16:58:19.195Z,7.05
2023-01-15T17:00:49.939Z,7.08
2023-01-15T17:03:20.622Z,7.15
2023-01-15T17:05:50.619Z,7.26
2023-01-15T17:08:21.106Z,7.19
2023-01-15T17:10:57.819Z,7.25
2023-01-15T17:13:34.563Z,7.18
2023-01-15T17:16:07.132Z,7.27
2023-01-15T17:18:35.838Z,7.25
2023-01-15T17:21:04.892Z,7.19
2023-01-15T17:23:37.297Z,7.20
2023-01-15T17:26:06.902Z,7.22
2023-01-15T17:28:36.319Z,7.23
2023-01-15T17:31:06.326Z,7.35
2023-01-15T17:33:34.597Z,7.26
2023-01-15T17:36:02.913Z,7.30
2023-01-15T17:38:31.136Z,7.28
2023-01-15T17:41:07.625Z,7.25
2023-01-15T17:43:37.531Z,7.13
2023-01-15T17:46:07.793Z,7.37
2023-01-15T17:48:36.492Z,7.28
2023-01-15T17:51:07.257Z,7.21
2023-01-15T17:53:36.065Z,6.90
2023-01-15T17:56:24.319Z,7.15
2023-01-15T17:59:11.593Z,7.11
2023-01-15T18:02:00.457Z,7.19
2023-01-15T18:04:50.727Z,7.16
2023-01-15T18:07:22.046Z,7.09
2023-01-15T18:09:52.975Z,7.22
2023-01-15T18:12:21.769Z,7.15
2023-01-15T18:14:51.273Z,7.09
2023-01-15T18:17:20.327Z,7.15
2023-01-15T18:19:49.782Z,7.17
2023-01-15T18:22:18.956Z,7.36
2023-01-15T18:24:46.926Z,7.17
2023-01-15T18:27:14.925Z,7.22
2023-01-15T18:29:43.743Z,7.14
2023-01-15T18:32:13.502Z,7.02
2023-01-15T18:34:41.864Z,7.16
2023-01-15T18:37:09.975Z,7.08
2023-01-15T18:39:38.326Z,7.26
2023-01-15T18:42:24.665Z,7.25
2023-01-15T18:45:12.385Z,7.31
2023-01-15T18:47:42.294Z,7.27
2023-01-15T18:50:11.964Z,7.26
2023-01-15T18:52:52.082Z,7.11
2023-01-15T18:55:21.488Z,7.15
2023-01-15T18:57:50.295Z,7.26
2023-01-15T19:00:19.556Z,7.07
2023-01-15T19:02:49.382Z,7.11
2023-01-15T19:05:20.328Z,7.13
2023-01-15T19:07:48.702Z,7.22
2023-01-15T19:10:17.940Z,7.04
2023-01-15T19:12:46.053Z,7.21
2023-01-15T19:15:33.428Z,7.10
2023-01-15T19:18:20.831Z,7.14
2023-01-15T19:20:49.245Z,7.08
2023-01-15T19:23:17.412Z,7.19
2023-01-15T19:25:48.740Z,7.23
2023-01-15T19:28:18.871Z,7.23
2023-01-15T19:31:10.633Z,7.28
2023-01-15T19:33:40.013Z,7.29
2023-01-15T19:36:08.507Z,7.29
2023-01-15T19:38:38.113Z,7.32
2023-01-15T19:41:28.572Z,7.30
2023-01-15T19:44:14.071Z,7.31
2023-01-15T19:47:08.308Z,7.35
2023-01-15T19:49:56.541Z,7.31
2023-01-15T19:52:36.811Z,7.23
2023-01-15T19:55:10.881Z,7.22
2023-01-15T19:57:39.579Z,7.30
2023-01-15T20:00:11.143Z,7.21
2023-01-15T20:02:39.755Z,7.23
2023-01-15T20:05:11.437Z,7.23
2023-01-15T20:07:40.186Z,7.29
2023-01-15T20:10:12.172Z,7.08
2023-01-15T20:12:58.320Z,7.12
2023-01-15T20:15:27.605Z,7.14
2023-01-15T20:17:56.878Z,6.93
2023-01-15T20:20:27.307Z,6.95
2023-01-15T20:22:57.974Z,6.93
2023-01-15T20:25:27.178Z,6.95
2023-01-15T20:27:55.794Z,6.98
2023-01-15T20:30:25.674Z,6.93
2023-01-15T20:32:55.755Z,6.87
2023-01-15T20:35:27.009Z,6.91
2023-01-15T20:37:55.312Z,6.92
2023-01-15T20:40:24.794Z,6.54
2023-01-15T20:43:10.753Z,6.61
2023-01-15T20:45:39.328Z,6.48
2023-01-15T20:48:25.654Z,6.65
2023-01-15T20:51:04.148Z,6.38
2023-01-15T20:53:34.531Z,6.58
2023-01-15T20:56:03.648Z,6.42
2023-01-15T20:58:31.877Z,6.51
2023-01-15T21:01:04.149Z,6.50
2023-01-15T21:03:32.496Z,6.66
2023-01-15T21:06:05.024Z,6.41
2023-01-15T21:08:34.095Z,6.52
2023-01-15T21:11:03.787Z,6.40
2023-01-15T21:13:32.774Z,6.40
2023-01-15T21:16:05.678Z,6.55
2023-01-15T21:18:37.731Z,6.53
2023-01-15T21:21:10.996Z,6.41
2023-01-15T21:23:39.403Z,6.27
2023-01-15T21:26:08.639Z,6.43
2023-01-15T21:28:36.815Z,6.44
2023-01-15T21:31:08.169Z,6.43
2023-01-15T21:33:38.017Z,6.24
2023-01-15T21:36:08.817Z,6.32
2023-01-15T21:38:38.790Z,6.39
2023-01-15T21:41:10.285Z,6.16
2023-01-15T21:46:40.034Z,6.15
2023-01-15T21:49:08.597Z,6.41
2023-01-15T21:51:37.743Z,6.51
2023-01-15T21:54:07.858Z,6.69
2023-01-15T21:56:36.040Z,6.78
2023-01-15T21:59:06.460Z,6.55
2023-01-15T22:01:34.490Z,6.47
2023-01-15T22:04:03.249Z,6.53
2023-01-15T22:06:31.106Z,6.33
2023-01-15T22:08:59.354Z,6.22
2023-01-15T22:11:43.674Z,6.39
2023-01-15T22:14:13.467Z,6.34
2023-01-15T22:16:41.759Z,6.27
2023-01-15T22:19:11.072Z,6.22
2023-01-15T22:21:39.592Z,6.19
2023-01-15T22:24:08.771Z,6.16
2023-01-15T22:26:38.685Z,6.25
2023-01-15T22:29:06.706Z,6.17
2023-01-15T22:31:34.813Z,6.21
2023-01-15T22:34:03.020Z,6.20
2023-01-15T22:36:31.122Z,6.39
2023-01-15T22:38:59.429Z,6.26
2023-01-15T22:41:44.272Z,6.34
2023-01-15T22:44:13.819Z,6.32
2023-01-15T22:46:41.873Z,6.33
2023-01-15T22:49:09.889Z,6.20
2023-01-15T22:51:39.419Z,6.33
2023-01-15T22:54:08.611Z,6.12
2023-01-15T22:56:37.834Z,6.25
2023-01-15T22:59:06.471Z,6.32
2023-01-15T23:01:36.311Z,6.37
2023-01-15T23:04:05.333Z,6.36
2023-01-15T23:06:33.622Z,6.40
2023-01-15T23:09:04.279Z,6.33
2023-01-15T23:11:32.159Z,6.51
2023-01-15T23:14:01.166Z,6.40
2023-01-15T23:16:29.090Z,6.44
2023-01-15T23:18:58.936Z,6.48
2023-01-15T23:21:27.655Z,6.34
2023-01-15T23:23:56.596Z,6.43
2023-01-15T23:26:26.122Z,6.32
2023-01-15T23:28:54.389Z,6.11
2023-01-15T23:31:23.193Z,6.25
2023-01-15T23:33:51.331Z,6.32
2023-01-15T23:36:21.034Z,6.32
2023-01-15T23:38:49.465Z,6.30
2023-01-15T23:41:19.947Z,6.43
2023-01-15T23:44:05.293Z,6.43
2023-01-15T23:46:36.652Z,6.53
2023-01-15T23:49:07.560Z,6.53
2023-01-15T23:51:37.883Z,6.40
2023-01-15T23:54:08.613Z,6.44
2023-01-15T23:56:36.832Z,6.57
2023-01-15T23:59:05.217Z,6.52
